Terminal Aerodrome Forecast
Issued by NWS

Home | Current Version | Previous Version | Text Only | Print | Product List | Glossary On
Versions: 1 2 3 4 5 6 7 8 9 10 11 12 13 14
909
FTUS46 KSTO 100523
TAFMHR
TAF
KMHR 100523Z 1006/1106 VRB04KT P6SM SCT250
      TEMPO 1013/1017 4SM BR=

USA.gov is the U.S. government's official web portal to all federal, state and local government web resources and services.